createdAt,value
2023-01-31T00:01:10.594Z,14.50
2023-01-31T00:03:43.292Z,13.60
2023-01-31T00:06:18.153Z,13.10
2023-01-31T00:08:50.505Z,14.50
2023-01-31T00:11:28.832Z,12.60
2023-01-31T00:14:01.262Z,14.40
2023-01-31T00:16:32.245Z,14.50
2023-01-31T00:19:03.441Z,12.80
2023-01-31T00:21:34.942Z,17.70
2023-01-31T00:24:06.425Z,11.20
2023-01-31T00:26:38.070Z,12.60
2023-01-31T00:29:09.059Z,13.10
2023-01-31T00:31:41.441Z,17.20
2023-01-31T00:34:14.019Z,18.10
2023-01-31T00:36:47.225Z,15.60
2023-01-31T00:39:18.132Z,18.50
2023-01-31T00:41:49.484Z,17.50
2023-01-31T00:44:20.564Z,13.30
2023-01-31T00:46:51.567Z,14.60
2023-01-31T00:49:22.535Z,17.30
2023-01-31T00:51:53.494Z,16.10
2023-01-31T00:54:24.818Z,17.20
2023-01-31T00:56:56.162Z,12.80
2023-01-31T00:59:27.630Z,16.10
2023-01-31T01:01:58.609Z,15.40
2023-01-31T01:04:29.607Z,15.10
2023-01-31T01:07:00.708Z,12.30
2023-01-31T01:09:32.435Z,16.20
2023-01-31T01:12:04.083Z,14.00
2023-01-31T01:14:35.574Z,11.90
2023-01-31T01:17:08.193Z,10.50
2023-01-31T01:19:39.660Z,13.60
2023-01-31T01:22:16.291Z,11.10
2023-01-31T01:24:47.702Z,12.20
2023-01-31T01:27:19.222Z,16.10
2023-01-31T01:29:50.367Z,11.80
2023-01-31T01:32:21.410Z,14.60
2023-01-31T01:34:52.429Z,14.10
2023-01-31T01:37:23.491Z,10.20
2023-01-31T01:39:55.019Z,11.60
2023-01-31T01:42:28.688Z,10.80
2023-01-31T01:45:01.564Z,16.80
2023-01-31T01:47:44.725Z,15.60
2023-01-31T01:50:23.714Z,16.90
2023-01-31T01:52:58.235Z,14.30
2023-01-31T01:55:34.499Z,14.40
2023-01-31T01:58:11.022Z,12.90
2023-01-31T02:00:42.398Z,11.60
2023-01-31T02:03:13.782Z,12.20
2023-01-31T02:05:47.125Z,14.10
2023-01-31T02:08:21.390Z,15.00
2023-01-31T02:10:57.685Z,15.10
2023-01-31T02:13:29.744Z,10.20
2023-01-31T02:16:01.347Z,18.00
2023-01-31T02:18:32.555Z,13.00
2023-01-31T02:21:33.761Z,17.90
2023-01-31T02:24:36.965Z,11.00
2023-01-31T02:27:35.631Z,9.60
2023-01-31T02:30:34.966Z,10.20
2023-01-31T02:33:20.094Z,15.70
2023-01-31T02:35:59.982Z,12.50
2023-01-31T02:38:46.085Z,14.20
2023-01-31T02:41:25.012Z,10.10
2023-01-31T02:44:19.952Z,13.30
2023-01-31T02:46:57.675Z,9.70
2023-01-31T02:49:39.662Z,15.50
2023-01-31T02:52:26.216Z,17.90
2023-01-31T02:55:28.757Z,16.40
2023-01-31T02:58:01.682Z,10.70
2023-01-31T03:00:37.850Z,11.20
2023-01-31T03:03:14.888Z,15.40
2023-01-31T03:05:45.837Z,18.10
2023-01-31T03:08:16.781Z,9.50
2023-01-31T03:11:04.072Z,12.50
2023-01-31T03:13:44.819Z,10.70
2023-01-31T03:16:41.945Z,11.60
2023-01-31T03:19:18.611Z,12.30
2023-01-31T03:21:54.280Z,14.40
2023-01-31T03:24:27.988Z,17.30
2023-01-31T03:27:02.659Z,14.50
2023-01-31T03:29:40.141Z,11.20
2023-01-31T03:32:23.353Z,16.00
2023-01-31T03:34:55.837Z,14.60
2023-01-31T03:37:34.585Z,13.20
2023-01-31T03:40:18.563Z,18.20
2023-01-31T03:42:53.432Z,16.90
2023-01-31T03:45:32.581Z,10.20
2023-01-31T03:48:14.394Z,13.80
2023-01-31T03:50:51.076Z,11.70
2023-01-31T03:53:27.747Z,12.80
2023-01-31T03:56:02.649Z,19.00
2023-01-31T03:58:38.860Z,12.20
2023-01-31T04:01:13.001Z,16.50
2023-01-31T04:03:46.756Z,14.10
2023-01-31T04:06:18.070Z,14.60
2023-01-31T04:08:49.154Z,16.90
2023-01-31T04:11:25.692Z,20.50
2023-01-31T04:13:56.942Z,14.30
2023-01-31T04:16:27.977Z,12.00
2023-01-31T04:18:59.265Z,10.50
2023-01-31T04:21:30.277Z,16.40
2023-01-31T04:24:01.165Z,12.50
2023-01-31T04:26:32.293Z,15.90
2023-01-31T04:29:03.648Z,15.00
2023-01-31T04:31:34.769Z,13.80
2023-01-31T04:34:06.938Z,18.00
2023-01-31T04:36:37.921Z,13.70
2023-01-31T04:39:08.799Z,18.90
2023-01-31T04:41:39.775Z,17.60
2023-01-31T04:44:11.010Z,17.10
2023-01-31T04:46:42.036Z,24.00
2023-01-31T04:49:12.995Z,16.10
2023-01-31T04:51:44.195Z,12.10
2023-01-31T04:54:15.676Z,13.50
2023-01-31T04:56:47.090Z,21.60
2023-01-31T04:59:18.019Z,18.00
2023-01-31T05:01:48.965Z,17.20
2023-01-31T05:04:22.237Z,19.30
2023-01-31T05:06:53.242Z,20.70
2023-01-31T05:09:25.119Z,14.20
2023-01-31T05:11:56.069Z,20.20
2023-01-31T05:14:27.529Z,16.50
2023-01-31T05:16:59.496Z,14.10
2023-01-31T05:19:30.464Z,13.70
2023-01-31T05:22:01.467Z,17.90
2023-01-31T05:24:34.387Z,18.00
2023-01-31T05:27:05.998Z,12.50
2023-01-31T05:29:37.696Z,14.10
2023-01-31T05:32:10.075Z,13.80
2023-01-31T05:34:41.686Z,17.30
2023-01-31T05:37:13.138Z,14.40
2023-01-31T05:39:45.020Z,19.10
2023-01-31T05:42:15.982Z,12.80
2023-01-31T05:44:46.984Z,15.90
2023-01-31T05:47:19.337Z,13.40
2023-01-31T05:49:51.226Z,13.60
2023-01-31T05:52:22.651Z,7.20
2023-01-31T05:54:53.929Z,17.90
2023-01-31T05:57:25.412Z,10.10
2023-01-31T05:59:56.429Z,11.60
2023-01-31T06:02:27.738Z,15.80
2023-01-31T06:05:01.989Z,15.00
2023-01-31T06:07:33.271Z,13.50
2023-01-31T06:10:05.071Z,15.60
2023-01-31T06:12:36.699Z,19.30
2023-01-31T06:15:09.656Z,14.40
2023-01-31T06:17:40.632Z,14.80
2023-01-31T06:20:13.182Z,18.70
2023-01-31T06:22:44.479Z,10.60
2023-01-31T06:25:15.550Z,23.90
2023-01-31T06:27:46.758Z,13.40
2023-01-31T06:30:18.334Z,9.10
2023-01-31T06:32:49.265Z,16.70
2023-01-31T06:35:21.323Z,19.60
2023-01-31T06:37:52.759Z,16.40
2023-01-31T06:40:23.825Z,12.40
2023-01-31T06:42:55.319Z,11.90
2023-01-31T06:45:26.807Z,16.90
2023-01-31T06:47:57.755Z,8.10
2023-01-31T06:50:28.665Z,13.20
2023-01-31T06:53:00.282Z,13.20
2023-01-31T06:55:31.497Z,12.80
2023-01-31T06:58:02.815Z,15.50
2023-01-31T07:00:33.887Z,12.00
2023-01-31T07:03:04.910Z,11.30
2023-01-31T07:05:36.130Z,12.10
2023-01-31T07:08:12.579Z,21.40
2023-01-31T07:10:43.864Z,12.30
2023-01-31T07:13:20.056Z,8.60
2023-01-31T07:15:51.025Z,13.50
2023-01-31T07:18:22.051Z,9.10
2023-01-31T07:20:53.197Z,12.90
2023-01-31T07:23:24.938Z,13.90
2023-01-31T07:25:56.044Z,7.70
2023-01-31T07:28:28.304Z,13.10
2023-01-31T07:31:04.715Z,13.70
2023-01-31T07:33:35.938Z,9.30
2023-01-31T07:36:10.012Z,13.50
2023-01-31T07:38:41.431Z,9.80
2023-01-31T07:41:13.192Z,10.80
2023-01-31T07:43:44.128Z,11.50
2023-01-31T07:46:15.209Z,15.60
2023-01-31T07:48:46.217Z,8.90
2023-01-31T07:51:17.162Z,7.30
2023-01-31T07:53:49.112Z,12.50
2023-01-31T07:56:22.091Z,13.70
2023-01-31T07:58:53.438Z,9.70
2023-01-31T08:01:43.765Z,12.20
2023-01-31T08:04:21.483Z,19.40
2023-01-31T08:06:56.952Z,14.30
2023-01-31T08:09:27.985Z,9.20
2023-01-31T08:11:58.884Z,10.00
2023-01-31T08:14:31.040Z,11.30
2023-01-31T08:17:02.064Z,5.50
2023-01-31T08:19:34.385Z,9.20
2023-01-31T08:22:05.937Z,10.00
2023-01-31T08:24:36.871Z,9.30
2023-01-31T08:27:07.858Z,16.10
2023-01-31T08:29:38.790Z,15.00
2023-01-31T08:32:09.950Z,10.80
2023-01-31T08:34:40.896Z,9.70
2023-01-31T08:37:11.835Z,10.80
2023-01-31T08:39:44.444Z,16.00
2023-01-31T08:42:15.520Z,13.70
2023-01-31T08:44:46.967Z,9.50
2023-01-31T08:47:17.960Z,16.40
2023-01-31T08:49:48.994Z,10.20
2023-01-31T08:52:20.180Z,12.20
2023-01-31T08:54:51.862Z,11.60
2023-01-31T08:57:22.830Z,13.50
2023-01-31T08:59:54.100Z,6.30
2023-01-31T09:02:25.731Z,9.20
2023-01-31T09:04:59.182Z,7.90
2023-01-31T09:07:31.205Z,10.60
2023-01-31T09:10:03.451Z,10.60
2023-01-31T09:12:36.606Z,8.40
2023-01-31T09:26:57.648Z,12.60
2023-01-31T09:29:30.786Z,11.50
2023-01-31T09:32:03.133Z,13.00
2023-01-31T09:34:37.191Z,12.60
2023-01-31T09:37:10.327Z,14.40
2023-01-31T09:39:45.271Z,10.70
2023-01-31T09:42:24.823Z,13.30
2023-01-31T09:45:03.701Z,9.10
2023-01-31T09:47:38.762Z,14.10
2023-01-31T09:52:45.020Z,12.20
2023-01-31T09:55:24.378Z,10.10
2023-01-31T09:58:07.183Z,10.40
2023-01-31T10:00:48.455Z,12.50
2023-01-31T10:03:52.197Z,12.20
2023-01-31T10:06:28.177Z,8.90
2023-01-31T10:09:04.396Z,9.90
2023-01-31T10:11:42.991Z,8.70
2023-01-31T10:14:34.879Z,12.00
2023-01-31T10:17:12.977Z,14.40
2023-01-31T10:19:50.723Z,10.10
2023-01-31T10:22:27.852Z,13.90
2023-01-31T10:25:03.943Z,9.10
2023-01-31T10:27:45.298Z,7.40
2023-01-31T10:30:22.820Z,8.50
2023-01-31T10:33:00.538Z,7.10
2023-01-31T10:35:37.652Z,21.20
2023-01-31T10:38:16.672Z,9.10
2023-01-31T10:40:52.672Z,15.50
2023-01-31T10:43:30.830Z,10.50
2023-01-31T10:46:03.789Z,11.20
2023-01-31T10:48:34.810Z,8.90
2023-01-31T10:51:21.674Z,11.90
2023-01-31T10:54:07.554Z,17.60
2023-01-31T10:56:43.251Z,7.90
2023-01-31T10:59:24.841Z,8.80
2023-01-31T11:01:56.307Z,9.60
2023-01-31T11:04:33.311Z,13.00
2023-01-31T11:07:06.612Z,10.00
2023-01-31T11:09:42.336Z,13.10
2023-01-31T11:12:14.300Z,8.90
2023-01-31T11:14:45.557Z,14.60
2023-01-31T11:17:23.152Z,10.30
2023-01-31T11:19:58.946Z,10.30
2023-01-31T11:22:33.529Z,13.60
2023-01-31T11:25:05.801Z,8.10
2023-01-31T11:27:43.391Z,9.70
2023-01-31T11:30:27.242Z,8.70
2023-01-31T11:32:59.057Z,10.20
2023-01-31T11:35:32.594Z,10.30
2023-01-31T11:38:20.556Z,11.00
2023-01-31T11:40:51.691Z,10.60
2023-01-31T11:43:32.202Z,8.20
2023-01-31T11:46:05.228Z,10.60
2023-01-31T11:48:43.526Z,11.30
2023-01-31T11:51:28.032Z,11.40
2023-01-31T11:53:59.339Z,12.40
2023-01-31T11:56:35.775Z,6.80
2023-01-31T11:59:14.904Z,11.10
2023-01-31T12:01:51.007Z,8.20
2023-01-31T12:04:27.443Z,10.30
2023-01-31T12:07:22.425Z,8.40
2023-01-31T12:09:59.647Z,8.00
2023-01-31T12:12:37.130Z,10.00
2023-01-31T12:15:17.527Z,7.50
2023-01-31T12:17:51.871Z,10.20
2023-01-31T12:20:34.425Z,8.00
2023-01-31T12:23:14.086Z,10.90
2023-01-31T12:26:01.948Z,8.50
2023-01-31T12:28:47.392Z,10.20
2023-01-31T12:31:40.874Z,11.10
2023-01-31T12:34:31.925Z,15.60
2023-01-31T12:37:28.398Z,9.80
2023-01-31T12:40:24.726Z,12.10
2023-01-31T12:43:02.636Z,7.40
2023-01-31T12:45:53.418Z,10.40
2023-01-31T12:48:41.049Z,11.30
2023-01-31T12:51:27.714Z,9.20
2023-01-31T12:54:11.849Z,7.20
2023-01-31T12:57:08.496Z,11.40
2023-01-31T12:59:56.201Z,7.50
2023-01-31T13:02:38.993Z,7.30
2023-01-31T13:05:24.701Z,10.30
2023-01-31T13:08:02.941Z,11.30
2023-01-31T13:10:40.587Z,7.40
2023-01-31T13:13:18.457Z,10.90
2023-01-31T13:15:53.023Z,7.20
2023-01-31T13:18:25.531Z,5.40
2023-01-31T13:21:00.419Z,7.70
2023-01-31T13:23:35.866Z,8.30
2023-01-31T13:26:12.337Z,10.30
2023-01-31T13:28:49.866Z,18.90
2023-01-31T13:31:26.241Z,14.80
2023-01-31T13:34:03.728Z,8.40
2023-01-31T13:36:39.043Z,11.90
2023-01-31T13:39:16.760Z,6.90
2023-01-31T13:41:47.707Z,10.80
2023-01-31T13:44:20.882Z,10.80
2023-01-31T13:46:59.321Z,10.50
2023-01-31T13:49:34.852Z,7.90
2023-01-31T13:52:12.057Z,8.60
2023-01-31T13:54:49.099Z,9.20
2023-01-31T13:57:29.829Z,10.70
2023-01-31T14:00:10.303Z,10.10
2023-01-31T14:02:41.316Z,11.90
2023-01-31T14:05:50.761Z,9.00
2023-01-31T14:08:59.197Z,16.60
2023-01-31T14:11:44.409Z,10.10
2023-01-31T14:14:39.338Z,15.60
2023-01-31T14:17:14.008Z,16.40
2023-01-31T14:20:06.229Z,7.20
2023-01-31T14:22:40.331Z,8.20
2023-01-31T14:25:38.306Z,14.70
2023-01-31T14:28:13.329Z,5.90
2023-01-31T14:30:47.734Z,11.80
2023-01-31T14:33:35.289Z,11.90
2023-01-31T14:36:42.116Z,8.80
2023-01-31T14:39:57.122Z,10.60
2023-01-31T14:42:54.061Z,5.80
2023-01-31T14:45:58.022Z,12.70
2023-01-31T14:48:57.879Z,9.10
2023-01-31T14:51:45.900Z,9.20
2023-01-31T14:54:35.698Z,9.80
2023-01-31T14:57:23.207Z,10.00
2023-01-31T15:00:00.121Z,15.50
2023-01-31T15:02:47.779Z,9.70
2023-01-31T15:05:23.617Z,11.40
2023-01-31T15:08:07.578Z,15.40
2023-01-31T15:11:06.491Z,10.50
2023-01-31T15:13:49.049Z,11.10
2023-01-31T15:16:26.897Z,12.10
2023-01-31T15:19:07.463Z,16.90
2023-01-31T15:21:43.388Z,7.50
2023-01-31T15:24:20.903Z,12.90
2023-01-31T15:26:53.632Z,10.80
2023-01-31T15:29:28.811Z,10.50
2023-01-31T15:34:36.142Z,12.30
2023-01-31T15:37:18.073Z,12.50
2023-01-31T15:39:56.387Z,16.40
2023-01-31T15:42:30.004Z,21.70
2023-01-31T15:45:21.124Z,18.30
2023-01-31T15:48:04.049Z,15.90
2023-01-31T15:50:36.645Z,10.80
2023-01-31T15:53:15.127Z,15.50
2023-01-31T15:55:48.957Z,16.50
2023-01-31T15:58:23.566Z,15.30
2023-01-31T16:00:56.900Z,13.40
2023-01-31T16:03:30.787Z,14.70
2023-01-31T16:06:04.062Z,13.40
2023-01-31T16:08:38.379Z,14.40
2023-01-31T16:11:11.298Z,10.50
2023-01-31T16:13:44.677Z,15.60
2023-01-31T16:16:17.085Z,11.20
2023-01-31T16:18:52.333Z,10.90
2023-01-31T16:24:15.229Z,18.90
2023-01-31T16:26:55.851Z,19.30
2023-01-31T16:29:34.693Z,17.70
2023-01-31T16:32:16.414Z,19.40
2023-01-31T16:34:53.202Z,14.30
2023-01-31T16:37:34.706Z,25.90
2023-01-31T16:40:19.534Z,22.50
2023-01-31T16:42:50.942Z,20.70
2023-01-31T16:45:34.631Z,21.30
2023-01-31T16:48:29.328Z,16.50
2023-01-31T16:51:02.523Z,21.70
2023-01-31T16:53:40.070Z,17.70
2023-01-31T16:56:25.704Z,23.00
2023-01-31T17:01:31.713Z,22.00
2023-01-31T17:06:37.763Z,25.00
2023-01-31T17:09:15.873Z,24.40
2023-01-31T17:11:47.213Z,17.30
2023-01-31T17:14:18.405Z,25.90
2023-01-31T17:16:53.636Z,27.00
2023-01-31T17:19:24.884Z,16.00
2023-01-31T17:21:56.312Z,21.40
2023-01-31T17:24:27.418Z,20.80
2023-01-31T17:26:58.601Z,24.20
2023-01-31T17:29:29.597Z,12.20
2023-01-31T17:32:01.604Z,21.50
2023-01-31T17:34:32.677Z,31.10
2023-01-31T17:37:03.682Z,28.10
2023-01-31T17:39:35.380Z,23.90
2023-01-31T17:42:07.131Z,18.40
2023-01-31T17:44:40.541Z,17.90
2023-01-31T17:47:11.641Z,22.00
2023-01-31T17:49:44.000Z,21.00
2023-01-31T17:52:16.081Z,27.20
2023-01-31T17:54:47.490Z,14.20
2023-01-31T17:57:18.572Z,23.00
2023-01-31T17:59:49.518Z,18.60
2023-01-31T18:02:20.434Z,22.70
2023-01-31T18:04:51.437Z,18.90
2023-01-31T18:07:22.837Z,17.30
2023-01-31T18:09:54.563Z,15.90
2023-01-31T18:12:25.554Z,26.40
2023-01-31T18:14:56.517Z,24.80
2023-01-31T18:17:27.769Z,21.20
2023-01-31T18:19:58.692Z,22.90
2023-01-31T18:22:29.783Z,25.60
2023-01-31T18:25:00.729Z,28.50
2023-01-31T18:27:31.683Z,21.30
2023-01-31T18:30:02.638Z,19.50
2023-01-31T18:32:34.368Z,16.00
2023-01-31T18:35:05.595Z,25.10
2023-01-31T18:37:38.775Z,22.30
2023-01-31T18:40:12.354Z,21.10
2023-01-31T18:42:43.893Z,20.10
2023-01-31T18:45:15.162Z,19.90
2023-01-31T18:47:46.087Z,21.30
2023-01-31T18:50:18.081Z,20.60
2023-01-31T18:52:49.349Z,23.50
2023-01-31T18:55:20.774Z,19.70
2023-01-31T18:57:52.135Z,27.10
2023-01-31T19:00:24.789Z,18.60
2023-01-31T19:02:56.985Z,21.50
2023-01-31T19:05:28.136Z,20.80
2023-01-31T19:07:59.146Z,24.30
2023-01-31T19:10:30.221Z,20.70
2023-01-31T19:13:01.470Z,21.40
2023-01-31T19:15:32.810Z,32.60
2023-01-31T19:18:03.808Z,24.50
2023-01-31T19:20:34.798Z,29.90
2023-01-31T19:23:05.789Z,21.70
2023-01-31T19:25:40.471Z,22.90
2023-01-31T19:28:11.348Z,19.90
2023-01-31T19:30:42.289Z,21.10
2023-01-31T19:33:13.393Z,20.80
2023-01-31T19:35:44.667Z,28.10
2023-01-31T19:38:15.938Z,20.50
2023-01-31T19:40:49.442Z,18.40
2023-01-31T19:43:20.654Z,17.00
2023-01-31T19:45:52.239Z,22.00
2023-01-31T19:48:23.465Z,28.20
2023-01-31T19:50:54.719Z,20.80
2023-01-31T19:53:27.036Z,13.50
2023-01-31T19:55:58.304Z,21.60
2023-01-31T19:58:32.420Z,18.60
2023-01-31T20:01:06.050Z,14.20
2023-01-31T20:03:38.032Z,20.80
2023-01-31T20:06:11.296Z,17.80
2023-01-31T20:08:42.947Z,21.10
2023-01-31T20:11:14.114Z,21.40
2023-01-31T20:13:45.329Z,21.90
2023-01-31T20:16:16.938Z,16.30
2023-01-31T20:18:48.855Z,22.70
2023-01-31T20:21:21.840Z,14.50
2023-01-31T20:23:53.078Z,18.10
2023-01-31T20:26:28.174Z,16.80
2023-01-31T20:31:30.687Z,14.90
2023-01-31T20:34:01.801Z,13.90
2023-01-31T20:36:32.965Z,15.10
2023-01-31T20:39:07.797Z,17.50
2023-01-31T20:41:38.928Z,18.30
2023-01-31T20:44:10.101Z,15.50
2023-01-31T20:46:41.525Z,16.20
2023-01-31T20:49:13.894Z,13.80
2023-01-31T20:51:45.010Z,15.30
2023-01-31T20:54:16.254Z,14.00
2023-01-31T20:56:47.398Z,13.90
2023-01-31T20:59:18.959Z,13.50
2023-01-31T21:01:50.415Z,10.20
2023-01-31T21:04:22.158Z,11.00
2023-01-31T21:06:53.200Z,11.10
2023-01-31T21:09:24.205Z,14.70
2023-01-31T21:11:56.039Z,14.60
2023-01-31T21:14:27.157Z,15.90
2023-01-31T21:16:58.199Z,12.80
2023-01-31T21:19:29.577Z,12.40
2023-01-31T21:22:00.761Z,12.60
2023-01-31T21:24:33.078Z,13.90
2023-01-31T21:27:04.354Z,12.40
2023-01-31T21:29:35.369Z,12.30
2023-01-31T21:32:07.390Z,12.30
2023-01-31T21:34:40.885Z,15.80
2023-01-31T21:37:12.992Z,14.60
2023-01-31T21:39:44.136Z,17.70
2023-01-31T21:42:19.715Z,20.70
2023-01-31T21:44:51.026Z,18.90
2023-01-31T21:47:22.095Z,14.00
2023-01-31T21:49:53.135Z,12.60
2023-01-31T21:52:24.355Z,12.60
2023-01-31T21:54:55.613Z,13.20
2023-01-31T21:57:26.640Z,13.40
2023-01-31T21:59:57.611Z,13.50
2023-01-31T22:02:29.085Z,12.80
2023-01-31T22:05:00.905Z,13.90
2023-01-31T22:07:32.158Z,12.60
2023-01-31T22:10:03.206Z,13.20
2023-01-31T22:12:34.442Z,10.20
2023-01-31T22:15:06.228Z,11.70
2023-01-31T22:17:37.668Z,13.00
2023-01-31T22:20:11.935Z,12.30
2023-01-31T22:22:43.240Z,12.60
2023-01-31T22:25:14.818Z,10.00
2023-01-31T22:27:45.713Z,10.60
2023-01-31T22:30:18.801Z,15.50
2023-01-31T22:32:49.747Z,13.40
2023-01-31T22:35:20.758Z,9.00
2023-01-31T22:37:51.839Z,11.50
2023-01-31T22:40:23.345Z,12.70
2023-01-31T22:42:54.601Z,10.80
2023-01-31T22:45:25.577Z,10.00
2023-01-31T22:47:56.515Z,11.30
2023-01-31T22:50:27.513Z,11.00
2023-01-31T22:52:58.518Z,8.80
2023-01-31T22:55:29.541Z,9.00
2023-01-31T22:58:00.594Z,10.10
2023-01-31T23:00:31.506Z,11.90
2023-01-31T23:03:02.780Z,12.80
2023-01-31T23:05:34.018Z,10.90
2023-01-31T23:08:04.955Z,11.40
2023-01-31T23:10:35.739Z,11.10
2023-01-31T23:13:07.366Z,12.20
2023-01-31T23:15:38.690Z,11.90
2023-01-31T23:18:09.694Z,12.90
2023-01-31T23:20:40.459Z,12.90
2023-01-31T23:23:11.261Z,15.30
2023-01-31T23:25:42.068Z,13.70
2023-01-31T23:28:12.935Z,16.20
2023-01-31T23:30:46.872Z,10.60
2023-01-31T23:33:17.695Z,13.30
2023-01-31T23:35:48.712Z,10.90
2023-01-31T23:38:20.018Z,13.30
2023-01-31T23:40:55.273Z,12.30
2023-01-31T23:43:25.922Z,9.30
2023-01-31T23:45:56.705Z,12.40
2023-01-31T23:48:27.500Z,10.10
2023-01-31T23:51:04.964Z,9.30
2023-01-31T23:53:35.742Z,12.40
2023-01-31T23:56:07.314Z,9.50
2023-01-31T23:58:38.105Z,10.70
